EGGP/LPL METAR and TAF weather

Enter ICAO airport designator
Station Type Date Time Source
EGGP METAR 2021/09/28 16:20 UTC NOAA

EGGP 281620Z 17008KT 9999 FEW035 11/10 Q1008


Station Type Date Time Source
EGGP Decoded METAR 2021/09/28 16:20 UTC NOAA

Liverpool Airport , United Kingdom (EGGP) 53-20N 002-51W
Sep 28, 2021 - 12:20 PM EDT / 2021.09.28 1620 UTC
Wind: from the S (170 degrees) at 9 MPH (8 KT):0
Visibility: greater than 7 mile(s):0
Sky conditions: mostly clear
Temperature: 51 F (11 C)
Dew Point: 50 F (10 C)
Relative Humidity: 93%
Pressure (altimeter): 29.77 in. Hg (1008 hPa)
ob: EGGP 281620Z 17008KT 9999 FEW035 11/10 Q1008
cycle: 16

Station Type Date Time Source
EGGP TAF 2021/09/28 12:09 UTC NOAA

TAF EGGP 281050Z 2812/2912 17012KT 9999 SCT030 PROB40
TEMPO 2812/2817 7000 RA PROB30
TEMPO 2812/2817 18015G25KT 3000 +SHRA BKN014CB PROB30
TEMPO 2817/2912 4000 SHRA
BECMG 2819/2822 28009KT
BECMG 2909/2912 31015G25KT

Example: see airport list